sensor_id;sensor_type;location;lat;lon;timestamp;temperature;humidity
1678;DHT22;6034;46.864;15.216;2022-07-17T06:16:08;21.80;99.90
1678;DHT22;6034;46.864;15.216;2022-07-17T06:18:35;21.80;99.90
1678;DHT22;6034;46.864;15.216;2022-07-17T06:21:02;21.90;99.90
1678;DHT22;6034;46.864;15.216;2022-07-17T06:23:29;21.70;99.90
1678;DHT22;6034;46.864;15.216;2022-07-17T06:25:56;22.00;99.90
1678;DHT22;6034;46.864;15.216;2022-07-17T06:28:23;22.00;99.90
1678;DHT22;6034;46.864;15.216;2022-07-17T06:30:50;21.80;99.90
1678;DHT22;6034;46.864;15.216;2022-07-17T06:33:18;21.70;99.90
1678;DHT22;6034;46.864;15.216;2022-07-17T06:35:45;21.80;99.90
1678;DHT22;6034;46.864;15.216;2022-07-17T06:38:12;21.80;99.90
1678;DHT22;6034;46.864;15.216;2022-07-17T06:40:39;22.10;99.90
1678;DHT22;6034;46.864;15.216;2022-07-17T06:43:06;22.00;99.90
1678;DHT22;6034;46.864;15.216;2022-07-17T06:45:33;21.90;99.90
1678;DHT22;6034;46.864;15.216;2022-07-17T06:48:00;21.90;99.90
1678;DHT22;6034;46.864;15.216;2022-07-17T06:50:28;21.90;99.90
1678;DHT22;6034;46.864;15.216;2022-07-17T06:52:55;22.00;99.90
1678;DHT22;6034;46.864;15.216;2022-07-17T06:55:23;21.80;99.90
1678;DHT22;6034;46.864;15.216;2022-07-17T06:57:50;21.90;99.90
1678;DHT22;6034;46.864;15.216;2022-07-17T07:00:17;22.20;99.90
1678;DHT22;6034;46.864;15.216;2022-07-17T07:02:44;22.20;99.90
1678;DHT22;6034;46.864;15.216;2022-07-17T07:05:11;21.90;99.90
1678;DHT22;6034;46.864;15.216;2022-07-17T07:07:39;21.90;99.90
1678;DHT22;6034;46.864;15.216;2022-07-17T07:10:07;21.60;99.90
1678;DHT22;6034;46.864;15.216;2022-07-17T07:12:34;21.60;99.90
1678;DHT22;6034;46.864;15.216;2022-07-17T07:15:01;21.40;99.90
1678;DHT22;6034;46.864;15.216;2022-07-17T07:17:28;21.60;99.90
1678;DHT22;6034;46.864;15.216;2022-07-17T07:19:57;21.80;99.90
1678;DHT22;6034;46.864;15.216;2022-07-17T07:22:23;21.80;99.90
1678;DHT22;6034;46.864;15.216;2022-07-17T07:24:52;21.50;99.90
1678;DHT22;6034;46.864;15.216;2022-07-17T07:27:19;21.70;99.90
1678;DHT22;6034;46.864;15.216;2022-07-17T07:29:45;21.50;99.90
1678;DHT22;6034;46.864;15.216;2022-07-17T07:32:12;21.80;99.90
1678;DHT22;6034;46.864;15.216;2022-07-17T07:34:39;21.70;99.90
1678;DHT22;6034;46.864;15.216;2022-07-17T07:37:06;22.20;99.90
1678;DHT22;6034;46.864;15.216;2022-07-17T07:39:33;22.00;99.90
1678;DHT22;6034;46.864;15.216;2022-07-17T07:42:01;22.30;99.90
1678;DHT22;6034;46.864;15.216;2022-07-17T07:44:28;22.50;99.90
1678;DHT22;6034;46.864;15.216;2022-07-17T07:46:55;22.50;99.90
1678;DHT22;6034;46.864;15.216;2022-07-17T07:49:22;22.40;99.90
1678;DHT22;6034;46.864;15.216;2022-07-17T07:51:49;22.50;99.90
1678;DHT22;6034;46.864;15.216;2022-07-17T07:54:16;22.50;99.90
1678;DHT22;6034;46.864;15.216;2022-07-17T07:56:42;22.60;99.90
1678;DHT22;6034;46.864;15.216;2022-07-17T07:59:11;22.70;99.90
1678;DHT22;6034;46.864;15.216;2022-07-17T08:01:38;22.70;99.90
1678;DHT22;6034;46.864;15.216;2022-07-17T08:04:05;22.50;99.90
1678;DHT22;6034;46.864;15.216;2022-07-17T08:06:32;22.60;99.90
1678;DHT22;6034;46.864;15.216;2022-07-17T08:08:59;22.60;99.90
1678;DHT22;6034;46.864;15.216;2022-07-17T08:11:25;22.70;99.90
1678;DHT22;6034;46.864;15.216;2022-07-17T08:13:53;22.70;99.90
1678;DHT22;6034;46.864;15.216;2022-07-17T08:16:21;22.10;99.90
1678;DHT22;6034;46.864;15.216;2022-07-17T08:18:48;22.50;99.90
1678;DHT22;6034;46.864;15.216;2022-07-17T08:21:15;22.10;99.90
1678;DHT22;6034;46.864;15.216;2022-07-17T08:23:42;22.20;99.90
1678;DHT22;6034;46.864;15.216;2022-07-17T08:26:08;22.40;99.90
1678;DHT22;6034;46.864;15.216;2022-07-17T08:28:35;22.40;99.90
1678;DHT22;6034;46.864;15.216;2022-07-17T08:31:02;22.70;99.90
1678;DHT22;6034;46.864;15.216;2022-07-17T08:33:30;22.80;99.90
1678;DHT22;6034;46.864;15.216;2022-07-17T08:35:57;22.60;99.90
1678;DHT22;6034;46.864;15.216;2022-07-17T08:38:24;22.70;99.90
1678;DHT22;6034;46.864;15.216;2022-07-17T08:40:51;22.50;99.90
1678;DHT22;6034;46.864;15.216;2022-07-17T08:43:20;21.50;99.90
1678;DHT22;6034;46.864;15.216;2022-07-17T08:45:47;21.80;99.90
1678;DHT22;6034;46.864;15.216;2022-07-17T08:48:15;22.30;99.90
1678;DHT22;6034;46.864;15.216;2022-07-17T08:50:44;22.60;99.90
1678;DHT22;6034;46.864;15.216;2022-07-17T08:53:11;22.60;99.90
1678;DHT22;6034;46.864;15.216;2022-07-17T08:55:38;22.50;99.90
1678;DHT22;6034;46.864;15.216;2022-07-17T08:58:05;22.10;99.90
1678;DHT22;6034;46.864;15.216;2022-07-17T09:00:32;22.30;99.90
1678;DHT22;6034;46.864;15.216;2022-07-17T09:02:59;22.50;99.90
1678;DHT22;6034;46.864;15.216;2022-07-17T09:05:27;22.20;99.90
1678;DHT22;6034;46.864;15.216;2022-07-17T09:07:56;22.40;99.90
1678;DHT22;6034;46.864;15.216;2022-07-17T09:10:30;22.60;99.90
1678;DHT22;6034;46.864;15.216;2022-07-17T09:12:58;22.60;99.90
1678;DHT22;6034;46.864;15.216;2022-07-17T09:15:26;22.40;99.90
1678;DHT22;6034;46.864;15.216;2022-07-17T09:17:54;22.40;99.90
1678;DHT22;6034;46.864;15.216;2022-07-17T09:20:21;22.80;99.90
1678;DHT22;6034;46.864;15.216;2022-07-17T09:22:56;23.10;99.90
1678;DHT22;6034;46.864;15.216;2022-07-17T09:25:36;22.90;99.90
1678;DHT22;6034;46.864;15.216;2022-07-17T09:28:04;22.90;99.90
1678;DHT22;6034;46.864;15.216;2022-07-17T09:30:32;23.40;99.90
1678;DHT22;6034;46.864;15.216;2022-07-17T09:32:59;22.30;99.90
1678;DHT22;6034;46.864;15.216;2022-07-17T09:35:26;22.70;99.90
1678;DHT22;6034;46.864;15.216;2022-07-17T09:37:53;22.80;99.90
1678;DHT22;6034;46.864;15.216;2022-07-17T09:40:22;22.90;99.90
1678;DHT22;6034;46.864;15.216;2022-07-17T09:43:06;23.20;99.90
1678;DHT22;6034;46.864;15.216;2022-07-17T09:45:34;23.30;99.90
1678;DHT22;6034;46.864;15.216;2022-07-17T09:48:01;23.40;99.90
1678;DHT22;6034;46.864;15.216;2022-07-17T09:50:29;23.50;99.90
1678;DHT22;6034;46.864;15.216;2022-07-17T09:52:56;23.50;99.90
1678;DHT22;6034;46.864;15.216;2022-07-17T09:55:27;23.40;99.90
1678;DHT22;6034;46.864;15.216;2022-07-17T09:57:55;23.40;99.90
1678;DHT22;6034;46.864;15.216;2022-07-17T10:00:22;23.40;99.90
1678;DHT22;6034;46.864;15.216;2022-07-17T10:02:49;23.40;99.90
1678;DHT22;6034;46.864;15.216;2022-07-17T10:05:18;23.70;99.90
1678;DHT22;6034;46.864;15.216;2022-07-17T10:07:45;23.60;99.90
1678;DHT22;6034;46.864;15.216;2022-07-17T10:10:13;23.70;99.90
1678;DHT22;6034;46.864;15.216;2022-07-17T10:12:43;23.80;99.90
1678;DHT22;6034;46.864;15.216;2022-07-17T10:15:10;23.80;99.90
1678;DHT22;6034;46.864;15.216;2022-07-17T10:17:37;23.90;99.90
1678;DHT22;6034;46.864;15.216;2022-07-17T10:20:05;24.10;99.90
1678;DHT22;6034;46.864;15.216;2022-07-17T10:22:40;23.90;99.90
1678;DHT22;6034;46.864;15.216;2022-07-17T10:25:11;24.00;99.90
1678;DHT22;6034;46.864;15.216;2022-07-17T10:27:45;24.00;99.90
1678;DHT22;6034;46.864;15.216;2022-07-17T10:30:18;24.10;99.90
1678;DHT22;6034;46.864;15.216;2022-07-17T10:32:50;24.20;99.90
1678;DHT22;6034;46.864;15.216;2022-07-17T10:35:17;24.00;99.90
1678;DHT22;6034;46.864;15.216;2022-07-17T10:37:44;24.10;99.90
1678;DHT22;6034;46.864;15.216;2022-07-17T10:40:12;24.30;99.90
1678;DHT22;6034;46.864;15.216;2022-07-17T10:42:46;23.90;99.90
1678;DHT22;6034;46.864;15.216;2022-07-17T10:45:15;24.20;99.90
1678;DHT22;6034;46.864;15.216;2022-07-17T10:47:46;24.20;99.90
1678;DHT22;6034;46.864;15.216;2022-07-17T10:50:13;24.50;99.90
1678;DHT22;6034;46.864;15.216;2022-07-17T10:52:40;24.50;99.90
1678;DHT22;6034;46.864;15.216;2022-07-17T10:55:17;24.10;99.90
1678;DHT22;6034;46.864;15.216;2022-07-17T10:57:44;24.20;99.90
1678;DHT22;6034;46.864;15.216;2022-07-17T11:00:12;23.70;99.90
1678;DHT22;6034;46.864;15.216;2022-07-17T11:02:42;22.80;99.90
1678;DHT22;6034;46.864;15.216;2022-07-17T11:05:09;24.10;99.90
1678;DHT22;6034;46.864;15.216;2022-07-17T11:07:47;24.10;99.90
1678;DHT22;6034;46.864;15.216;2022-07-17T11:10:14;24.20;99.90
1678;DHT22;6034;46.864;15.216;2022-07-17T11:12:42;24.50;99.90
1678;DHT22;6034;46.864;15.216;2022-07-17T11:15:09;24.50;99.90
1678;DHT22;6034;46.864;15.216;2022-07-17T11:17:36;24.50;99.90
1678;DHT22;6034;46.864;15.216;2022-07-17T11:20:05;24.50;99.90
1678;DHT22;6034;46.864;15.216;2022-07-17T11:22:32;24.60;99.90
1678;DHT22;6034;46.864;15.216;2022-07-17T11:24:58;24.60;99.90
1678;DHT22;6034;46.864;15.216;2022-07-17T11:27:26;24.90;99.90
1678;DHT22;6034;46.864;15.216;2022-07-17T11:29:54;24.60;99.90
1678;DHT22;6034;46.864;15.216;2022-07-17T11:32:21;24.40;99.90
1678;DHT22;6034;46.864;15.216;2022-07-17T11:34:48;24.50;99.90
1678;DHT22;6034;46.864;15.216;2022-07-17T11:37:17;24.70;99.90
1678;DHT22;6034;46.864;15.216;2022-07-17T11:39:44;24.80;99.90
1678;DHT22;6034;46.864;15.216;2022-07-17T11:42:12;24.80;99.90
1678;DHT22;6034;46.864;15.216;2022-07-17T11:44:39;24.90;99.90
1678;DHT22;6034;46.864;15.216;2022-07-17T11:47:07;25.00;99.90
1678;DHT22;6034;46.864;15.216;2022-07-17T11:49:35;24.70;99.90
1678;DHT22;6034;46.864;15.216;2022-07-17T11:52:06;24.50;99.90
1678;DHT22;6034;46.864;15.216;2022-07-17T11:54:44;24.70;99.90
1678;DHT22;6034;46.864;15.216;2022-07-17T11:57:12;24.60;99.90
1678;DHT22;6034;46.864;15.216;2022-07-17T11:59:39;24.70;99.90
1678;DHT22;6034;46.864;15.216;2022-07-17T12:02:06;24.80;99.90
1678;DHT22;6034;46.864;15.216;2022-07-17T12:04:33;25.00;99.90
1678;DHT22;6034;46.864;15.216;2022-07-17T12:07:01;25.00;99.70
1678;DHT22;6034;46.864;15.216;2022-07-17T12:09:28;24.70;99.90
1678;DHT22;6034;46.864;15.216;2022-07-17T12:12:00;24.90;99.90
1678;DHT22;6034;46.864;15.216;2022-07-17T12:14:27;25.10;99.90
1678;DHT22;6034;46.864;15.216;2022-07-17T12:16:55;25.00;99.90
1678;DHT22;6034;46.864;15.216;2022-07-17T12:19:22;24.90;99.90
1678;DHT22;6034;46.864;15.216;2022-07-17T12:21:53;24.60;99.90
1678;DHT22;6034;46.864;15.216;2022-07-17T12:24:22;24.20;99.00
1678;DHT22;6034;46.864;15.216;2022-07-17T12:26:49;24.30;98.90
1678;DHT22;6034;46.864;15.216;2022-07-17T12:29:18;24.60;99.70
1678;DHT22;6034;46.864;15.216;2022-07-17T12:31:45;24.80;99.90
1678;DHT22;6034;46.864;15.216;2022-07-17T12:34:12;25.00;99.90
1678;DHT22;6034;46.864;15.216;2022-07-17T12:36:39;25.20;99.90
1678;DHT22;6034;46.864;15.216;2022-07-17T12:39:06;24.40;98.70
1678;DHT22;6034;46.864;15.216;2022-07-17T12:41:33;23.60;98.10
1678;DHT22;6034;46.864;15.216;2022-07-17T12:44:00;23.60;99.90
1678;DHT22;6034;46.864;15.216;2022-07-17T12:46:28;23.60;99.40
1678;DHT22;6034;46.864;15.216;2022-07-17T12:48:55;23.80;99.90
1678;DHT22;6034;46.864;15.216;2022-07-17T12:51:22;24.10;99.90
1678;DHT22;6034;46.864;15.216;2022-07-17T12:53:48;24.50;99.90
1678;DHT22;6034;46.864;15.216;2022-07-17T12:56:15;24.70;99.90
1678;DHT22;6034;46.864;15.216;2022-07-17T12:58:42;24.70;99.90
1678;DHT22;6034;46.864;15.216;2022-07-17T13:01:09;24.60;99.90
1678;DHT22;6034;46.864;15.216;2022-07-17T13:03:38;24.30;99.90
1678;DHT22;6034;46.864;15.216;2022-07-17T13:06:05;24.50;99.90
1678;DHT22;6034;46.864;15.216;2022-07-17T13:08:32;24.10;99.90
1678;DHT22;6034;46.864;15.216;2022-07-17T13:10:59;24.30;99.90
1678;DHT22;6034;46.864;15.216;2022-07-17T13:13:26;24.60;99.90
1678;DHT22;6034;46.864;15.216;2022-07-17T13:15:53;24.20;99.90
1678;DHT22;6034;46.864;15.216;2022-07-17T13:18:20;23.80;99.70
1678;DHT22;6034;46.864;15.216;2022-07-17T13:20:48;24.00;99.90
1678;DHT22;6034;46.864;15.216;2022-07-17T13:23:16;24.40;99.90
1678;DHT22;6034;46.864;15.216;2022-07-17T13:25:43;24.70;99.90
1678;DHT22;6034;46.864;15.216;2022-07-17T13:28:09;24.80;99.90
1678;DHT22;6034;46.864;15.216;2022-07-17T13:30:36;25.00;99.90
1678;DHT22;6034;46.864;15.216;2022-07-17T13:33:04;25.10;99.90
1678;DHT22;6034;46.864;15.216;2022-07-17T13:35:31;25.00;99.90
1678;DHT22;6034;46.864;15.216;2022-07-17T13:37:59;24.90;99.90
1678;DHT22;6034;46.864;15.216;2022-07-17T13:40:29;25.00;99.90
1678;DHT22;6034;46.864;15.216;2022-07-17T13:42:56;24.80;99.90
1678;DHT22;6034;46.864;15.216;2022-07-17T13:45:23;25.10;99.90
1678;DHT22;6034;46.864;15.216;2022-07-17T13:47:49;25.10;99.90
1678;DHT22;6034;46.864;15.216;2022-07-17T13:50:17;25.20;99.90
1678;DHT22;6034;46.864;15.216;2022-07-17T13:52:43;25.20;99.90
1678;DHT22;6034;46.864;15.216;2022-07-17T13:55:12;25.10;99.90
1678;DHT22;6034;46.864;15.216;2022-07-17T13:57:39;25.10;99.90
1678;DHT22;6034;46.864;15.216;2022-07-17T14:00:06;25.00;99.70
1678;DHT22;6034;46.864;15.216;2022-07-17T14:02:33;24.80;98.50
1678;DHT22;6034;46.864;15.216;2022-07-17T14:05:00;24.90;99.90
1678;DHT22;6034;46.864;15.216;2022-07-17T14:07:27;24.80;99.90
1678;DHT22;6034;46.864;15.216;2022-07-17T14:09:54;24.50;99.90
1678;DHT22;6034;46.864;15.216;2022-07-17T14:12:22;24.80;99.90
1678;DHT22;6034;46.864;15.216;2022-07-17T14:14:49;25.00;99.90
1678;DHT22;6034;46.864;15.216;2022-07-17T14:17:16;25.00;99.90
1678;DHT22;6034;46.864;15.216;2022-07-17T14:19:43;25.00;99.90
1678;DHT22;6034;46.864;15.216;2022-07-17T14:22:10;25.20;99.90
1678;DHT22;6034;46.864;15.216;2022-07-17T14:24:37;25.10;99.90
1678;DHT22;6034;46.864;15.216;2022-07-17T14:27:04;25.10;99.90
1678;DHT22;6034;46.864;15.216;2022-07-17T14:29:32;25.20;99.90
1678;DHT22;6034;46.864;15.216;2022-07-17T14:31:59;25.10;99.50
1678;DHT22;6034;46.864;15.216;2022-07-17T14:34:26;24.90;99.90
1678;DHT22;6034;46.864;15.216;2022-07-17T14:36:52;25.10;99.90
1678;DHT22;6034;46.864;15.216;2022-07-17T14:39:19;25.10;99.90
1678;DHT22;6034;46.864;15.216;2022-07-17T14:41:46;25.20;99.90
1678;DHT22;6034;46.864;15.216;2022-07-17T14:44:13;25.20;99.90
1678;DHT22;6034;46.864;15.216;2022-07-17T14:46:41;25.20;99.90
1678;DHT22;6034;46.864;15.216;2022-07-17T14:49:08;25.20;99.90
1678;DHT22;6034;46.864;15.216;2022-07-17T14:51:35;25.10;99.90
1678;DHT22;6034;46.864;15.216;2022-07-17T14:54:02;24.80;99.90
1678;DHT22;6034;46.864;15.216;2022-07-17T14:56:29;24.70;99.90
1678;DHT22;6034;46.864;15.216;2022-07-17T14:58:56;24.80;99.90
1678;DHT22;6034;46.864;15.216;2022-07-17T15:01:23;24.80;99.90
1678;DHT22;6034;46.864;15.216;2022-07-17T15:03:51;24.90;99.90
1678;DHT22;6034;46.864;15.216;2022-07-17T15:06:18;24.90;99.90
1678;DHT22;6034;46.864;15.216;2022-07-17T15:08:45;24.90;99.90
1678;DHT22;6034;46.864;15.216;2022-07-17T15:11:12;24.80;99.90
1678;DHT22;6034;46.864;15.216;2022-07-17T15:13:39;24.80;99.90
1678;DHT22;6034;46.864;15.216;2022-07-17T15:16:06;24.80;99.90
1678;DHT22;6034;46.864;15.216;2022-07-17T15:18:33;24.80;99.90
1678;DHT22;6034;46.864;15.216;2022-07-17T15:21:01;24.80;99.90
1678;DHT22;6034;46.864;15.216;2022-07-17T15:23:28;24.60;99.90
1678;DHT22;6034;46.864;15.216;2022-07-17T15:25:55;24.70;99.90
1678;DHT22;6034;46.864;15.216;2022-07-17T15:28:22;24.70;99.90
1678;DHT22;6034;46.864;15.216;2022-07-17T15:30:49;24.70;99.90
1678;DHT22;6034;46.864;15.216;2022-07-17T15:33:15;24.60;99.90
1678;DHT22;6034;46.864;15.216;2022-07-17T15:35:42;24.60;99.90
1678;DHT22;6034;46.864;15.216;2022-07-17T15:38:11;24.60;99.90
1678;DHT22;6034;46.864;15.216;2022-07-17T15:40:38;24.50;99.90
1678;DHT22;6034;46.864;15.216;2022-07-17T15:43:05;24.50;99.90
1678;DHT22;6034;46.864;15.216;2022-07-17T15:45:32;24.50;99.90
1678;DHT22;6034;46.864;15.216;2022-07-17T15:48:00;24.10;99.90
1678;DHT22;6034;46.864;15.216;2022-07-17T15:50:27;24.20;99.90
1678;DHT22;6034;46.864;15.216;2022-07-17T15:52:53;24.20;99.90
1678;DHT22;6034;46.864;15.216;2022-07-17T15:55:22;24.30;99.90
1678;DHT22;6034;46.864;15.216;2022-07-17T15:57:49;24.30;99.90
1678;DHT22;6034;46.864;15.216;2022-07-17T16:00:15;24.20;99.90
1678;DHT22;6034;46.864;15.216;2022-07-17T16:02:42;24.30;99.90
1678;DHT22;6034;46.864;15.216;2022-07-17T16:05:09;23.90;99.40
1678;DHT22;6034;46.864;15.216;2022-07-17T16:07:36;23.90;99.70
1678;DHT22;6034;46.864;15.216;2022-07-17T16:10:04;23.80;99.90
1678;DHT22;6034;46.864;15.216;2022-07-17T16:12:32;23.70;99.90
1678;DHT22;6034;46.864;15.216;2022-07-17T16:14:59;23.80;99.90
1678;DHT22;6034;46.864;15.216;2022-07-17T16:17:26;23.80;99.90
1678;DHT22;6034;46.864;15.216;2022-07-17T16:19:53;23.70;99.90
1678;DHT22;6034;46.864;15.216;2022-07-17T16:22:21;23.80;99.90
1678;DHT22;6034;46.864;15.216;2022-07-17T16:24:48;23.80;99.90
1678;DHT22;6034;46.864;15.216;2022-07-17T16:27:15;23.80;99.90
1678;DHT22;6034;46.864;15.216;2022-07-17T16:29:43;23.80;99.90
1678;DHT22;6034;46.864;15.216;2022-07-17T16:32:10;23.90;99.90
1678;DHT22;6034;46.864;15.216;2022-07-17T16:34:37;23.80;99.90
1678;DHT22;6034;46.864;15.216;2022-07-17T16:37:03;23.80;99.90
1678;DHT22;6034;46.864;15.216;2022-07-17T16:39:30;23.80;99.90
1678;DHT22;6034;46.864;15.216;2022-07-17T16:41:57;23.80;99.90
1678;DHT22;6034;46.864;15.216;2022-07-17T16:44:24;23.50;99.90
1678;DHT22;6034;46.864;15.216;2022-07-17T16:46:52;23.50;99.90
1678;DHT22;6034;46.864;15.216;2022-07-17T16:49:19;23.40;99.90
1678;DHT22;6034;46.864;15.216;2022-07-17T16:51:46;23.40;99.90
1678;DHT22;6034;46.864;15.216;2022-07-17T16:54:13;23.20;99.90
1678;DHT22;6034;46.864;15.216;2022-07-17T16:56:40;23.10;99.90
1678;DHT22;6034;46.864;15.216;2022-07-17T16:59:07;23.10;99.90
1678;DHT22;6034;46.864;15.216;2022-07-17T17:01:34;23.10;99.90
1678;DHT22;6034;46.864;15.216;2022-07-17T17:04:02;23.10;99.90
1678;DHT22;6034;46.864;15.216;2022-07-17T17:06:29;23.10;99.90
1678;DHT22;6034;46.864;15.216;2022-07-17T17:08:56;23.00;99.90
1678;DHT22;6034;46.864;15.216;2022-07-17T17:11:23;23.00;99.90
1678;DHT22;6034;46.864;15.216;2022-07-17T17:13:50;23.00;99.90
1678;DHT22;6034;46.864;15.216;2022-07-17T17:16:17;22.90;99.90
1678;DHT22;6034;46.864;15.216;2022-07-17T17:18:44;22.90;99.90
1678;DHT22;6034;46.864;15.216;2022-07-17T17:21:12;22.80;99.90
1678;DHT22;6034;46.864;15.216;2022-07-17T17:23:39;22.80;99.90
1678;DHT22;6034;46.864;15.216;2022-07-17T17:26:06;22.70;99.90
1678;DHT22;6034;46.864;15.216;2022-07-17T17:28:33;22.80;99.90
1678;DHT22;6034;46.864;15.216;2022-07-17T17:31:00;22.70;99.90
1678;DHT22;6034;46.864;15.216;2022-07-17T17:33:27;22.70;99.90
1678;DHT22;6034;46.864;15.216;2022-07-17T17:35:54;22.70;99.90
1678;DHT22;6034;46.864;15.216;2022-07-17T17:38:22;22.70;99.90
1678;DHT22;6034;46.864;15.216;2022-07-17T17:40:49;22.70;99.90
1678;DHT22;6034;46.864;15.216;2022-07-17T17:43:16;22.70;99.90
1678;DHT22;6034;46.864;15.216;2022-07-17T17:45:43;22.70;99.90
1678;DHT22;6034;46.864;15.216;2022-07-17T17:48:09;22.70;99.90
1678;DHT22;6034;46.864;15.216;2022-07-17T17:50:36;22.80;99.90
1678;DHT22;6034;46.864;15.216;2022-07-17T17:53:03;22.70;99.90
1678;DHT22;6034;46.864;15.216;2022-07-17T17:55:32;22.70;99.90
1678;DHT22;6034;46.864;15.216;2022-07-17T17:57:59;22.70;99.90
1678;DHT22;6034;46.864;15.216;2022-07-17T18:00:25;22.70;99.90
1678;DHT22;6034;46.864;15.216;2022-07-17T18:02:52;22.60;99.90
1678;DHT22;6034;46.864;15.216;2022-07-17T18:05:19;22.60;99.90
1678;DHT22;6034;46.864;15.216;2022-07-17T18:07:46;22.60;99.90
1678;DHT22;6034;46.864;15.216;2022-07-17T18:10:13;22.50;99.90
1678;DHT22;6034;46.864;15.216;2022-07-17T18:12:41;22.50;99.90
1678;DHT22;6034;46.864;15.216;2022-07-17T18:15:09;22.50;99.90
1678;DHT22;6034;46.864;15.216;2022-07-17T18:17:36;22.50;99.90
1678;DHT22;6034;46.864;15.216;2022-07-17T18:20:04;22.50;99.90
1678;DHT22;6034;46.864;15.216;2022-07-17T18:22:31;22.40;99.90
1678;DHT22;6034;46.864;15.216;2022-07-17T18:24:58;22.40;99.90
1678;DHT22;6034;46.864;15.216;2022-07-17T18:27:24;22.40;99.90
1678;DHT22;6034;46.864;15.216;2022-07-17T18:29:53;22.30;99.90
1678;DHT22;6034;46.864;15.216;2022-07-17T18:32:19;22.30;99.90
1678;DHT22;6034;46.864;15.216;2022-07-17T18:34:46;22.20;99.90
1678;DHT22;6034;46.864;15.216;2022-07-17T18:37:13;22.20;99.90
1678;DHT22;6034;46.864;15.216;2022-07-17T18:39:40;22.10;99.90
1678;DHT22;6034;46.864;15.216;2022-07-17T18:42:07;22.10;99.90
1678;DHT22;6034;46.864;15.216;2022-07-17T18:44:34;22.10;99.90
1678;DHT22;6034;46.864;15.216;2022-07-17T18:47:04;22.00;99.90
1678;DHT22;6034;46.864;15.216;2022-07-17T18:49:31;22.00;99.90
1678;DHT22;6034;46.864;15.216;2022-07-17T18:51:58;22.00;99.90
1678;DHT22;6034;46.864;15.216;2022-07-17T18:54:25;21.90;99.90
1678;DHT22;6034;46.864;15.216;2022-07-17T18:56:52;21.90;99.90
1678;DHT22;6034;46.864;15.216;2022-07-17T18:59:19;21.90;99.90
1678;DHT22;6034;46.864;15.216;2022-07-17T19:01:49;21.80;99.90
1678;DHT22;6034;46.864;15.216;2022-07-17T19:04:18;21.70;99.90
1678;DHT22;6034;46.864;15.216;2022-07-17T19:06:45;21.70;99.90
1678;DHT22;6034;46.864;15.216;2022-07-17T19:09:12;21.70;99.90
1678;DHT22;6034;46.864;15.216;2022-07-17T19:11:39;21.60;99.90
1678;DHT22;6034;46.864;15.216;2022-07-17T19:14:06;21.60;99.90
1678;DHT22;6034;46.864;15.216;2022-07-17T19:16:34;21.60;99.90
1678;DHT22;6034;46.864;15.216;2022-07-17T19:19:01;21.50;99.90
1678;DHT22;6034;46.864;15.216;2022-07-17T19:21:29;21.50;99.90
1678;DHT22;6034;46.864;15.216;2022-07-17T19:23:56;21.50;99.90
1678;DHT22;6034;46.864;15.216;2022-07-17T19:26:23;21.60;99.90
1678;DHT22;6034;46.864;15.216;2022-07-17T19:28:50;21.60;99.90
1678;DHT22;6034;46.864;15.216;2022-07-17T19:31:18;21.50;99.90
1678;DHT22;6034;46.864;15.216;2022-07-17T19:33:45;21.50;99.90
1678;DHT22;6034;46.864;15.216;2022-07-17T19:36:12;21.50;99.90
1678;DHT22;6034;46.864;15.216;2022-07-17T19:38:40;21.50;99.90
1678;DHT22;6034;46.864;15.216;2022-07-17T19:41:07;21.50;99.90
1678;DHT22;6034;46.864;15.216;2022-07-17T19:43:34;21.40;99.90
1678;DHT22;6034;46.864;15.216;2022-07-17T19:46:01;21.40;99.90
1678;DHT22;6034;46.864;15.216;2022-07-17T19:48:28;21.40;99.90
1678;DHT22;6034;46.864;15.216;2022-07-17T19:50:54;21.40;99.90
1678;DHT22;6034;46.864;15.216;2022-07-17T19:53:21;21.30;99.90
1678;DHT22;6034;46.864;15.216;2022-07-17T19:55:50;21.20;99.90
1678;DHT22;6034;46.864;15.216;2022-07-17T19:58:34;21.00;99.90
1678;DHT22;6034;46.864;15.216;2022-07-17T20:01:01;21.10;99.90
1678;DHT22;6034;46.864;15.216;2022-07-17T20:03:27;21.10;99.90
1678;DHT22;6034;46.864;15.216;2022-07-17T20:05:54;21.10;99.90
1678;DHT22;6034;46.864;15.216;2022-07-17T20:08:21;21.10;99.90
1678;DHT22;6034;46.864;15.216;2022-07-17T20:10:50;21.10;99.90
1678;DHT22;6034;46.864;15.216;2022-07-17T20:13:17;21.10;99.90
1678;DHT22;6034;46.864;15.216;2022-07-17T20:15:44;21.00;99.90
1678;DHT22;6034;46.864;15.216;2022-07-17T20:18:11;20.90;99.90
1678;DHT22;6034;46.864;15.216;2022-07-17T20:20:38;20.90;99.90
1678;DHT22;6034;46.864;15.216;2022-07-17T20:23:05;20.90;99.90
1678;DHT22;6034;46.864;15.216;2022-07-17T20:25:32;20.80;99.90
1678;DHT22;6034;46.864;15.216;2022-07-17T20:28:00;20.80;99.90
1678;DHT22;6034;46.864;15.216;2022-07-17T20:30:27;20.80;99.90
1678;DHT22;6034;46.864;15.216;2022-07-17T20:32:55;20.70;99.90
1678;DHT22;6034;46.864;15.216;2022-07-17T20:35:22;20.70;99.90
1678;DHT22;6034;46.864;15.216;2022-07-17T20:37:48;20.70;99.90
1678;DHT22;6034;46.864;15.216;2022-07-17T20:40:15;20.70;99.90
1678;DHT22;6034;46.864;15.216;2022-07-17T20:42:43;20.60;99.90
1678;DHT22;6034;46.864;15.216;2022-07-17T20:45:11;20.60;99.90
1678;DHT22;6034;46.864;15.216;2022-07-17T20:47:38;20.60;99.90
1678;DHT22;6034;46.864;15.216;2022-07-17T20:50:06;20.50;99.90
1678;DHT22;6034;46.864;15.216;2022-07-17T20:52:33;20.50;99.90
1678;DHT22;6034;46.864;15.216;2022-07-17T20:55:00;20.40;99.90
1678;DHT22;6034;46.864;15.216;2022-07-17T20:57:27;20.40;99.90
1678;DHT22;6034;46.864;15.216;2022-07-17T20:59:54;20.40;99.90
